• Join FlightAware (Why Join?)
  • Login
  • US Flag 
12:06PM EDT


 

Airport Tracker/Info


-or-


 

Live Flight TrackerFlight Track Log ✈ SKW6492 ✈ 06-May-2013 ✈ KDEN - KCOD

Flight Track Log - Related Links

Times and Time Zones

All times are in EDT time to prevent confusion due to time zone crossing. See the SKW6492 flight status page for this flight to view local times or setup timezone preferences in your user account.

Time Position Orientation Groundspeed Altitude Reporting Facility
EDT Latitude Longitude Course Direction KTS MPH feet Rate Location/Type
09:39PM 39.9500 -104.6833 348° North 225 259 8,100  Level Denver TRACON
09:40PM 40.1650 -104.7711 347° North  Level FlightAware Approximate
09:40PM 40.0167 -104.6667 11° North 284 327 9,600  Level Denver TRACON
09:41PM 40.2708 -104.8029 347° North  Level FlightAware Approximate
09:41PM 40.1167 -104.6833 353° North 318 366 11,400  Level Denver TRACON
09:42PM 40.3763 -104.8365 346° North  Level FlightAware Approximate
09:42PM 40.2000 -104.7000 351° North 306 352 13,300  Level Denver TRACON
09:43PM 40.4815 -104.8716 346° North  Level FlightAware Approximate
09:43PM 40.2833 -104.7333 343° North 401 461 15,300  Level Denver TRACON
09:44PM 40.5873 -104.9035 348° North  Level FlightAware Approximate
09:44PM 40.3833 -104.7500 353° North 342 394 17,200  Level Denver TRACON
09:44PM 40.3961 -104.7569 338° Northwest 346 398 17,600 1,620 Climbing Denver Center
09:45PM 40.5017 -104.7819 350° North 355 409 19,300 1,620 Climbing Denver Center
09:46PM 40.6000 -104.8069 349° North 361 415 21,000 1,500 Climbing Denver Center
09:47PM 40.7083 -104.8314 350° North 368 423 22,500 1,260 Climbing Denver Center
09:48PM 40.7997 -104.8597 347° North 352 405 23,700 1,140 Climbing Denver Center
09:49PM 40.8981 -104.9064 340° North 372 428 24,900 1,020 Climbing Denver Center
09:51PM 41.0586 -105.0328 329° Northwest 366 421 26,700 900 Climbing Salt Lake Center
09:51PM 41.0864 -105.0611 322° Northwest 380 437 26,800 660 Climbing Denver Center
09:52PM 41.1661 -105.1456 321° Northwest 382 440 27,600 900 Climbing Denver Center
09:53PM 41.2619 -105.2497 321° Northwest 395 455 28,700 1,140 Climbing Denver Center
09:54PM 41.3394 -105.3328 321° Northwest 382 440 30,000 840 Climbing Denver Center
09:56PM 41.5094 -105.5169 321° Northwest 382 440 31,400 600 Climbing Denver Center
09:57PM 41.6008 -105.6189 320° Northwest 384 442 32,000 240 Climbing Denver Center
09:58PM 41.6828 -105.7064 321° Northwest 391 450 32,000  Level Denver Center
09:59PM 41.7822 -105.8164 320° Northwest 411 473 32,000  Level Denver Center
10:00PM 41.8683 -105.9111 321° Northwest 416 479 32,000  Level Denver Center
10:01PM 41.9575 -106.0081 321° Northwest 426 490 32,000  Level Denver Center
10:02PM 42.0569 -106.1194 320° Northwest 418 481 32,000  Level Denver Center
10:03PM 42.1397 -106.2139 320° Northwest 410 472 32,000  Level Denver Center
10:04PM 42.2383 -106.3253 320° Northwest 412 474 32,000  Level Denver Center
10:05PM 42.3231 -106.4189 321° Northwest 410 472 32,000  Level Denver Center
10:08PM 42.5031 -106.6244 320° Northwest 407 468 32,000  Level Denver Center
10:09PM 42.5867 -106.7183 320° Northwest 406 467 32,000  Level Denver Center
10:10PM 42.6839 -106.8314 319° Northwest 411 473 32,000  Level Denver Center
10:11PM 42.7692 -106.9267 321° Northwest 413 475 32,000  Level Denver Center
10:12PM 42.8675 -107.0414 319° Northwest 415 478 32,000  Level Denver Center
10:13PM 42.9539 -107.1394 320° Northwest 422 486 32,000  Level Denver Center
10:14PM 43.0503 -107.2542 319° Northwest 424 488 32,000  Level Denver Center
10:15PM 43.1353 -107.3522 320° Northwest 419 482 32,000  Level Denver Center
10:16PM 43.2875 -107.5328 319° Northwest 413 475 32,000  Level Salt Lake Center
10:17PM 43.3706 -107.6300 320° Northwest 409 471 32,000  Level Salt Lake Center
10:19PM 43.5522 -107.8450 319° Northwest 414 476 32,000 -180 Level Salt Lake Center
10:20PM 43.6369 -107.9456 319° Northwest 416 479 31,600 -1,860 Descending Salt Lake Center
10:22PM 43.7372 -108.0681 319° Northwest 429 494 28,200 -3,060 Descending Salt Lake Center
10:23PM 43.8214 -108.1689 319° Northwest 420 483 25,300 -2,760 Descending Salt Lake Center
10:24PM 43.9042 -108.2692 319° Northwest 412 474 22,600 -2,760 Descending Salt Lake Center
10:25PM 43.9964 -108.3828 318° Northwest 401 461 19,700 -2,640 Descending Salt Lake Center
10:26PM 44.0747 -108.4781 319° Northwest 394 453 17,200 -2,460 Descending Salt Lake Center
10:27PM 44.1483 -108.5675 319° Northwest 383 441 14,700 -2,700 Descending Salt Lake Center
10:28PM 44.2283 -108.6661 319° Northwest 363 418 11,700 -1,560 Descending Salt Lake Center
10:30PM 44.3633 -108.8306 319° Northwest 320 368 10,000 -600 Descending Salt Lake Center
10:31PM 44.4167 -108.8756 329° Northwest 285 328 10,000 -360 Level Salt Lake Center
10:32PM 44.4747 -108.8558 14° North 241 277 9,300 -900 Descending Salt Lake Center
10:33PM 44.5353 -108.8186 24° Northeast 222 255 8,200 -840 Descending Salt Lake Center
10:34PM 44.5831 -108.8606 328° Northwest 220 253 7,700 -840 Descending Salt Lake Center
10:35PM 44.5728 -108.9367 259° West 206 237 6,600 -1,140 Descending Salt Lake Center